createdAt,value
2023-03-21T00:01:43.650Z,830.00
2023-03-21T00:05:43.821Z,821.00
2023-03-21T00:09:43.999Z,831.00
2023-03-21T00:13:44.036Z,826.00
2023-03-21T00:17:44.133Z,837.00
2023-03-21T00:22:03.288Z,824.00
2023-03-21T00:25:45.309Z,835.00
2023-03-21T00:29:44.413Z,830.00
2023-03-21T00:33:44.609Z,828.00
2023-03-21T00:37:44.779Z,825.00
2023-03-21T00:41:45.148Z,819.00
2023-03-21T00:45:45.117Z,827.00
2023-03-21T00:49:45.303Z,831.00
2023-03-21T00:53:45.442Z,833.00
2023-03-21T00:57:50.082Z,833.00
2023-03-21T01:01:46.564Z,830.00
2023-03-21T01:05:45.414Z,825.00
2023-03-21T01:09:45.516Z,827.00
2023-03-21T01:13:53.828Z,831.00
2023-03-21T01:17:46.589Z,827.00
2023-03-21T01:21:45.585Z,827.00
2023-03-21T01:25:45.598Z,818.00
2023-03-21T01:29:45.690Z,824.00
2023-03-21T01:33:45.874Z,819.00
2023-03-21T01:37:46.000Z,811.00
2023-03-21T01:41:46.181Z,809.00
2023-03-21T01:45:46.423Z,809.00
2023-03-21T01:49:46.847Z,798.00
2023-03-21T01:53:46.689Z,815.00
2023-03-21T01:57:58.508Z,814.00
2023-03-21T02:01:47.703Z,807.00
2023-03-21T02:05:46.680Z,808.00
2023-03-21T02:09:46.690Z,815.00
2023-03-21T02:13:48.751Z,810.00
2023-03-21T02:17:46.845Z,813.00
2023-03-21T02:21:46.784Z,801.00
2023-03-21T02:25:46.809Z,805.00
2023-03-21T02:29:46.770Z,822.00
2023-03-21T02:33:46.663Z,811.00
2023-03-21T02:37:51.987Z,796.00
2023-03-21T02:41:47.787Z,803.00
2023-03-21T02:45:46.593Z,799.00
2023-03-21T02:49:46.650Z,795.00
2023-03-21T02:53:51.760Z,812.00
2023-03-21T02:57:47.802Z,816.00
2023-03-21T03:01:46.756Z,797.00
2023-03-21T03:05:46.773Z,805.00
2023-03-21T03:09:46.905Z,803.00
2023-03-21T03:13:47.979Z,797.00
2023-03-21T03:17:47.172Z,802.00
2023-03-21T03:21:47.353Z,799.00
2023-03-21T03:25:47.525Z,796.00
2023-03-21T03:29:47.667Z,788.00
2023-03-21T03:33:47.776Z,805.00
2023-03-21T03:37:47.901Z,794.00
2023-03-21T03:42:07.778Z,798.00
2023-03-21T03:45:49.043Z,799.00
2023-03-21T03:49:48.255Z,801.00
2023-03-21T03:53:48.031Z,794.00
2023-03-21T03:57:48.203Z,792.00
2023-03-21T04:01:48.357Z,787.00
2023-03-21T04:05:48.511Z,781.00
2023-03-21T04:09:48.638Z,786.00
2023-03-21T04:13:48.820Z,788.00
2023-03-21T04:17:48.966Z,784.00
2023-03-21T04:21:49.141Z,784.00
2023-03-21T04:25:56.291Z,787.00
2023-03-21T04:29:50.223Z,792.00
2023-03-21T04:33:49.162Z,789.00
2023-03-21T04:37:49.145Z,780.00
2023-03-21T04:41:49.326Z,782.00
2023-03-21T04:45:49.326Z,767.00
2023-03-21T04:49:49.373Z,780.00
2023-03-21T04:53:49.493Z,769.00
2023-03-21T04:57:49.476Z,775.00
2023-03-21T05:01:49.553Z,779.00
2023-03-21T05:05:49.627Z,767.00
2023-03-21T05:09:49.677Z,764.00
2023-03-21T05:13:49.756Z,713.00
2023-03-21T05:17:49.829Z,693.00
2023-03-21T05:21:50.273Z,660.00
2023-03-21T05:25:49.949Z,648.00
2023-03-21T05:29:50.020Z,639.00
2023-03-21T05:33:50.039Z,634.00
2023-03-21T05:37:50.114Z,633.00
2023-03-21T05:41:50.202Z,637.00
2023-03-21T05:45:50.325Z,635.00
2023-03-21T05:49:50.361Z,638.00
2023-03-21T05:53:50.443Z,640.00
2023-03-21T05:57:50.530Z,633.00
2023-03-21T06:01:50.545Z,626.00
2023-03-21T06:05:50.579Z,613.00
2023-03-21T06:09:50.657Z,608.00
2023-03-21T06:13:50.773Z,619.00
2023-03-21T06:17:50.856Z,638.00
2023-03-21T06:21:51.336Z,628.00
2023-03-21T06:25:50.956Z,618.00
2023-03-21T06:29:51.045Z,634.00
2023-03-21T06:33:51.205Z,840.00
2023-03-21T06:37:51.426Z,777.00
2023-03-21T06:41:51.983Z,725.00
2023-03-21T06:45:51.488Z,696.00
2023-03-21T06:49:51.621Z,686.00
2023-03-21T06:53:51.665Z,666.00
2023-03-21T06:57:51.722Z,660.00
2023-03-21T07:01:51.753Z,662.00
2023-03-21T07:05:51.888Z,648.00
2023-03-21T07:09:52.320Z,636.00
2023-03-21T07:13:52.075Z,624.00
2023-03-21T07:17:52.154Z,607.00
2023-03-21T07:21:52.367Z,599.00
2023-03-21T07:25:53.154Z,599.00
2023-03-21T07:29:52.634Z,596.00
2023-03-21T07:33:52.650Z,596.00
2023-03-21T07:37:52.780Z,592.00
2023-03-21T07:41:52.946Z,577.00
2023-03-21T07:45:53.399Z,585.00
2023-03-21T07:49:53.114Z,591.00
2023-03-21T07:53:53.203Z,598.00
2023-03-21T07:57:53.332Z,600.00
2023-03-21T08:01:53.477Z,614.00
2023-03-21T08:05:53.511Z,619.00
2023-03-21T08:09:54.945Z,622.00
2023-03-21T08:13:53.758Z,636.00
2023-03-21T08:17:53.869Z,634.00
2023-03-21T08:21:53.954Z,638.00
2023-03-21T08:25:54.069Z,639.00
2023-03-21T08:29:54.265Z,647.00
2023-03-21T08:33:54.302Z,616.00
2023-03-21T08:37:54.379Z,591.00
2023-03-21T08:41:54.487Z,620.00
2023-03-21T08:45:54.670Z,624.00
2023-03-21T08:49:54.825Z,628.00
2023-03-21T08:53:54.792Z,641.00
2023-03-21T08:57:54.879Z,650.00
2023-03-21T09:01:54.991Z,666.00
2023-03-21T09:05:55.027Z,665.00
2023-03-21T09:10:15.056Z,654.00
2023-03-21T09:13:56.028Z,648.00
2023-03-21T09:17:55.057Z,649.00
2023-03-21T09:21:54.955Z,645.00
2023-03-21T09:25:54.945Z,640.00
2023-03-21T09:29:55.079Z,640.00
2023-03-21T09:33:55.218Z,625.00
2023-03-21T09:37:55.341Z,621.00
2023-03-21T09:41:55.535Z,623.00
2023-03-21T09:45:55.553Z,629.00
2023-03-21T09:50:01.735Z,632.00
2023-03-21T09:53:57.225Z,634.00
2023-03-21T09:57:55.681Z,640.00
2023-03-21T10:01:55.811Z,632.00
2023-03-21T10:05:55.963Z,623.00
2023-03-21T10:09:56.159Z,629.00
2023-03-21T10:13:56.315Z,630.00
2023-03-21T10:17:56.451Z,617.00
2023-03-21T10:22:02.377Z,609.00
2023-03-21T10:25:57.740Z,612.00
2023-03-21T10:29:56.563Z,622.00
2023-03-21T10:33:56.571Z,610.00
2023-03-21T10:37:56.986Z,624.00
2023-03-21T10:41:56.912Z,624.00
2023-03-21T10:45:57.071Z,619.00
2023-03-21T10:50:07.265Z,633.00
2023-03-21T10:53:58.049Z,637.00
2023-03-21T10:57:57.072Z,630.00
2023-03-21T11:01:57.252Z,623.00
2023-03-21T11:05:57.391Z,608.00
2023-03-21T11:09:57.965Z,602.00
2023-03-21T11:13:58.225Z,605.00
2023-03-21T11:17:57.705Z,602.00
2023-03-21T11:21:57.952Z,593.00
2023-03-21T11:25:58.815Z,573.00
2023-03-21T11:29:58.086Z,598.00
2023-03-21T11:33:58.206Z,588.00
2023-03-21T11:37:58.259Z,575.00
2023-03-21T11:41:58.470Z,582.00
2023-03-21T11:45:58.557Z,625.00
2023-03-21T11:50:05.102Z,656.00
2023-03-21T11:53:59.563Z,663.00
2023-03-21T11:58:05.269Z,655.00
2023-03-21T12:01:59.915Z,656.00
2023-03-21T12:05:58.442Z,631.00
2023-03-21T12:09:58.449Z,625.00
2023-03-21T12:13:58.492Z,622.00
2023-03-21T12:17:58.930Z,611.00
2023-03-21T12:21:58.764Z,596.00
2023-03-21T12:25:58.921Z,598.00
2023-03-21T12:29:59.167Z,545.00
2023-03-21T12:33:59.177Z,528.00
2023-03-21T12:37:59.356Z,492.00
2023-03-21T12:41:59.493Z,523.00
2023-03-21T12:45:59.759Z,662.00
2023-03-21T12:49:59.871Z,659.00
2023-03-21T12:53:59.998Z,662.00
2023-03-21T12:58:00.209Z,634.00
2023-03-21T13:02:00.367Z,754.00
2023-03-21T13:06:00.407Z,730.00
2023-03-21T13:10:00.510Z,730.00
2023-03-21T13:14:00.664Z,729.00
2023-03-21T13:18:00.909Z,770.00
2023-03-21T13:22:00.981Z,1031.00
2023-03-21T13:26:01.120Z,936.00
2023-03-21T13:30:01.326Z,953.00
2023-03-21T13:34:01.478Z,718.00
2023-03-21T13:38:01.556Z,652.00
2023-03-21T13:42:01.699Z,652.00
2023-03-21T13:46:01.880Z,646.00
2023-03-21T13:50:02.033Z,651.00
2023-03-21T13:54:02.092Z,626.00
2023-03-21T13:58:02.292Z,606.00
2023-03-21T14:02:02.338Z,612.00
2023-03-21T14:06:02.721Z,579.00
2023-03-21T14:10:04.946Z,567.00
2023-03-21T14:14:02.724Z,563.00
2023-03-21T14:18:10.825Z,602.00
2023-03-21T14:22:05.194Z,591.00
2023-03-21T14:26:02.979Z,610.00
2023-03-21T14:30:03.121Z,595.00
2023-03-21T14:34:03.267Z,594.00
2023-03-21T14:38:03.490Z,612.00
2023-03-21T14:42:03.564Z,631.00
2023-03-21T14:46:03.794Z,628.00
2023-03-21T14:50:03.872Z,630.00
2023-03-21T14:54:04.058Z,633.00
2023-03-21T14:58:06.269Z,609.00
2023-03-21T15:02:04.089Z,607.00
2023-03-21T15:06:04.069Z,614.00
2023-03-21T15:10:04.112Z,614.00
2023-03-21T15:14:04.039Z,630.00
2023-03-21T15:18:03.991Z,619.00
2023-03-21T15:22:06.302Z,632.00
2023-03-21T15:26:04.108Z,624.00
2023-03-21T15:30:04.242Z,609.00
2023-03-21T15:34:04.469Z,596.00
2023-03-21T15:38:05.807Z,623.00
2023-03-21T15:42:04.947Z,645.00
2023-03-21T15:46:04.962Z,664.00
2023-03-21T15:50:05.140Z,665.00
2023-03-21T15:54:05.315Z,702.00
2023-03-21T15:58:05.519Z,798.00
2023-03-21T16:02:05.568Z,684.00
2023-03-21T16:06:05.813Z,816.00
2023-03-21T16:10:05.938Z,765.00
2023-03-21T16:14:06.958Z,771.00
2023-03-21T16:18:06.316Z,748.00
2023-03-21T16:22:06.434Z,803.00
2023-03-21T16:26:06.563Z,701.00
2023-03-21T16:30:06.738Z,633.00
2023-03-21T16:34:06.891Z,635.00
2023-03-21T16:38:07.058Z,624.00
2023-03-21T16:42:07.237Z,634.00
2023-03-21T16:46:07.458Z,653.00
2023-03-21T16:50:07.559Z,657.00
2023-03-21T16:54:07.686Z,653.00
2023-03-21T16:58:07.875Z,659.00
2023-03-21T17:02:07.975Z,650.00
2023-03-21T17:06:08.113Z,639.00
2023-03-21T17:10:08.272Z,728.00
2023-03-21T17:14:08.424Z,703.00
2023-03-21T17:18:08.607Z,672.00
2023-03-21T17:22:08.693Z,655.00
2023-03-21T17:26:08.936Z,641.00
2023-03-21T17:30:09.025Z,623.00
2023-03-21T17:34:09.128Z,628.00
2023-03-21T17:38:09.265Z,622.00
2023-03-21T17:42:09.377Z,622.00
2023-03-21T17:46:09.533Z,635.00
2023-03-21T17:50:09.568Z,638.00
2023-03-21T17:54:09.676Z,653.00
2023-03-21T17:58:11.852Z,643.00
2023-03-21T18:02:09.890Z,658.00
2023-03-21T18:06:09.901Z,653.00
2023-03-21T18:10:09.992Z,655.00
2023-03-21T18:14:17.241Z,655.00
2023-03-21T18:18:11.063Z,655.00
2023-03-21T18:22:10.195Z,666.00
2023-03-21T18:26:09.999Z,664.00
2023-03-21T18:30:47.356Z,666.00
2023-03-21T18:34:10.937Z,682.00
2023-03-21T18:38:09.880Z,673.00
2023-03-21T18:42:16.726Z,702.00
2023-03-21T18:46:10.849Z,698.00
2023-03-21T18:50:14.444Z,679.00
2023-03-21T18:54:11.092Z,683.00
2023-03-21T18:58:09.697Z,690.00
2023-03-21T19:02:09.814Z,710.00
2023-03-21T19:06:09.691Z,702.00
2023-03-21T19:10:18.064Z,701.00
2023-03-21T19:14:10.709Z,697.00
2023-03-21T19:18:49.939Z,682.00
2023-03-21T19:22:10.605Z,661.00
2023-03-21T19:26:09.631Z,661.00
2023-03-21T19:30:14.402Z,643.00
2023-03-21T19:34:10.558Z,652.00
2023-03-21T19:38:09.516Z,637.00
2023-03-21T19:42:16.839Z,644.00
2023-03-21T19:46:10.467Z,635.00
2023-03-21T19:54:10.378Z,638.00
2023-03-21T19:58:09.339Z,638.00
2023-03-21T20:02:33.224Z,637.00
2023-03-21T20:06:10.171Z,634.00
2023-03-21T20:10:09.195Z,635.00
2023-03-21T20:14:09.145Z,634.00
2023-03-21T20:18:09.123Z,641.00
2023-03-21T20:22:20.199Z,635.00
2023-03-21T20:26:10.600Z,629.00
2023-03-21T20:30:10.499Z,624.00
2023-03-21T20:34:09.359Z,625.00
2023-03-21T20:38:09.045Z,607.00
2023-03-21T20:42:09.310Z,607.00
2023-03-21T20:46:09.696Z,610.00
2023-03-21T20:50:10.147Z,591.00
2023-03-21T20:54:09.386Z,602.00
2023-03-21T20:58:29.991Z,584.00
2023-03-21T21:02:10.380Z,583.00
2023-03-21T21:06:09.399Z,581.00
2023-03-21T21:10:09.277Z,574.00
2023-03-21T21:14:09.335Z,577.00
2023-03-21T21:18:09.362Z,599.00
2023-03-21T21:22:09.456Z,601.00
2023-03-21T21:26:09.496Z,588.00
2023-03-21T21:30:09.562Z,580.00
2023-03-21T21:34:09.631Z,573.00
2023-03-21T21:38:09.718Z,575.00
2023-03-21T21:42:09.810Z,578.00
2023-03-21T21:46:09.823Z,585.00
2023-03-21T21:50:09.860Z,576.00
2023-03-21T21:54:09.993Z,584.00
2023-03-21T21:58:10.032Z,575.00
2023-03-21T22:02:10.133Z,575.00
2023-03-21T22:06:10.237Z,576.00
2023-03-21T22:10:10.328Z,579.00
2023-03-21T22:14:10.420Z,575.00
2023-03-21T22:18:10.446Z,577.00
2023-03-21T22:22:10.677Z,569.00
2023-03-21T22:26:10.768Z,575.00
2023-03-21T22:30:10.767Z,576.00
2023-03-21T22:34:11.184Z,570.00
2023-03-21T22:38:10.978Z,569.00
2023-03-21T22:42:11.044Z,564.00
2023-03-21T22:46:11.236Z,560.00
2023-03-21T22:50:11.182Z,565.00
2023-03-21T22:54:11.746Z,568.00
2023-03-21T22:58:11.419Z,570.00
2023-03-21T23:02:11.537Z,573.00
2023-03-21T23:06:11.587Z,577.00
2023-03-21T23:10:11.638Z,576.00
2023-03-21T23:14:11.726Z,572.00
2023-03-21T23:18:11.911Z,576.00
2023-03-21T23:22:12.654Z,575.00
2023-03-21T23:26:12.114Z,580.00
2023-03-21T23:30:12.091Z,577.00
2023-03-21T23:34:12.266Z,586.00
2023-03-21T23:38:12.348Z,583.00
2023-03-21T23:42:12.470Z,588.00
2023-03-21T23:46:12.596Z,587.00
2023-03-21T23:50:12.614Z,589.00
2023-03-21T23:54:12.710Z,587.00
2023-03-21T23:58:13.203Z,593.00
